sensor_id;sensor_type;location;lat;lon;timestamp;P1;durP1;ratioP1;P2;durP2;ratioP2
3967;SDS011;9221;42.646;23.380;2023-03-26T00:00:27;0.43;;;0.37;;
3967;SDS011;9221;42.646;23.380;2023-03-26T00:02:53;0.87;;;0.30;;
3967;SDS011;9221;42.646;23.380;2023-03-26T00:05:18;3.70;;;0.30;;
3967;SDS011;9221;42.646;23.380;2023-03-26T00:07:43;0.40;;;0.20;;
3967;SDS011;9221;42.646;23.380;2023-03-26T00:10:09;0.70;;;0.40;;
3967;SDS011;9221;42.646;23.380;2023-03-26T00:12:35;1.50;;;0.40;;
3967;SDS011;9221;42.646;23.380;2023-03-26T00:15:01;1.33;;;0.40;;
3967;SDS011;9221;42.646;23.380;2023-03-26T00:17:27;0.50;;;0.40;;
3967;SDS011;9221;42.646;23.380;2023-03-26T00:19:52;0.50;;;0.30;;
3967;SDS011;9221;42.646;23.380;2023-03-26T00:22:18;1.07;;;0.20;;
3967;SDS011;9221;42.646;23.380;2023-03-26T00:24:43;0.40;;;0.30;;
3967;SDS011;9221;42.646;23.380;2023-03-26T00:27:11;0.40;;;0.30;;
3967;SDS011;9221;42.646;23.380;2023-03-26T00:29:36;0.50;;;0.30;;
3967;SDS011;9221;42.646;23.380;2023-03-26T00:32:03;0.43;;;0.30;;
3967;SDS011;9221;42.646;23.380;2023-03-26T00:34:29;0.50;;;0.40;;
3967;SDS011;9221;42.646;23.380;2023-03-26T00:36:58;0.50;;;0.27;;
3967;SDS011;9221;42.646;23.380;2023-03-26T00:39:26;0.50;;;0.30;;
3967;SDS011;9221;42.646;23.380;2023-03-26T00:41:53;0.70;;;0.30;;
3967;SDS011;9221;42.646;23.380;2023-03-26T00:44:18;0.77;;;0.30;;
3967;SDS011;9221;42.646;23.380;2023-03-26T00:46:44;0.73;;;0.30;;
3967;SDS011;9221;42.646;23.380;2023-03-26T00:49:10;0.40;;;0.30;;
3967;SDS011;9221;42.646;23.380;2023-03-26T00:51:38;0.40;;;0.30;;
3967;SDS011;9221;42.646;23.380;2023-03-26T00:54:04;0.60;;;0.40;;
3967;SDS011;9221;42.646;23.380;2023-03-26T00:56:31;1.13;;;0.37;;
3967;SDS011;9221;42.646;23.380;2023-03-26T00:58:57;0.40;;;0.27;;
3967;SDS011;9221;42.646;23.380;2023-03-26T01:01:24;2.53;;;0.30;;
3967;SDS011;9221;42.646;23.380;2023-03-26T01:03:51;0.40;;;0.20;;
3967;SDS011;9221;42.646;23.380;2023-03-26T01:06:32;0.90;;;0.40;;
3967;SDS011;9221;42.646;23.380;2023-03-26T01:09:11;1.37;;;0.30;;
3967;SDS011;9221;42.646;23.380;2023-03-26T01:11:39;0.70;;;0.30;;
3967;SDS011;9221;42.646;23.380;2023-03-26T01:14:13;3.03;;;0.67;;
3967;SDS011;9221;42.646;23.380;2023-03-26T01:16:43;0.93;;;0.30;;
3967;SDS011;9221;42.646;23.380;2023-03-26T01:19:16;0.83;;;0.30;;
3967;SDS011;9221;42.646;23.380;2023-03-26T01:22:08;1.57;;;0.27;;
3967;SDS011;9221;42.646;23.380;2023-03-26T01:24:37;0.80;;;0.30;;
3967;SDS011;9221;42.646;23.380;2023-03-26T01:29:47;0.80;;;0.30;;
3967;SDS011;9221;42.646;23.380;2023-03-26T01:35:12;0.40;;;0.30;;
3967;SDS011;9221;42.646;23.380;2023-03-26T01:46:01;0.60;;;0.43;;
3967;SDS011;9221;42.646;23.380;2023-03-26T01:48:33;0.53;;;0.30;;
3967;SDS011;9221;42.646;23.380;2023-03-26T01:51:01;0.60;;;0.37;;
3967;SDS011;9221;42.646;23.380;2023-03-26T01:53:27;2.63;;;0.50;;
3967;SDS011;9221;42.646;23.380;2023-03-26T01:58:30;1.57;;;0.60;;
3967;SDS011;9221;42.646;23.380;2023-03-26T02:03:40;2.63;;;0.60;;
3967;SDS011;9221;42.646;23.380;2023-03-26T02:06:14;5.70;;;0.60;;
3967;SDS011;9221;42.646;23.380;2023-03-26T02:08:50;0.67;;;0.47;;
3967;SDS011;9221;42.646;23.380;2023-03-26T02:11:20;0.73;;;0.53;;
3967;SDS011;9221;42.646;23.380;2023-03-26T02:13:46;2.37;;;0.50;;
3967;SDS011;9221;42.646;23.380;2023-03-26T02:16:13;0.80;;;0.63;;
3967;SDS011;9221;42.646;23.380;2023-03-26T02:18:41;0.83;;;0.50;;
3967;SDS011;9221;42.646;23.380;2023-03-26T02:21:11;1.07;;;0.60;;
3967;SDS011;9221;42.646;23.380;2023-03-26T02:23:44;0.70;;;0.50;;
3967;SDS011;9221;42.646;23.380;2023-03-26T02:26:11;2.67;;;0.50;;
3967;SDS011;9221;42.646;23.380;2023-03-26T02:28:39;1.43;;;0.73;;
3967;SDS011;9221;42.646;23.380;2023-03-26T02:31:05;0.97;;;0.50;;
3967;SDS011;9221;42.646;23.380;2023-03-26T02:33:33;2.63;;;0.70;;
3967;SDS011;9221;42.646;23.380;2023-03-26T02:35:59;0.90;;;0.70;;
3967;SDS011;9221;42.646;23.380;2023-03-26T02:38:28;0.50;;;0.40;;
3967;SDS011;9221;42.646;23.380;2023-03-26T02:40:58;1.53;;;0.63;;
3967;SDS011;9221;42.646;23.380;2023-03-26T02:43:23;0.80;;;0.70;;
3967;SDS011;9221;42.646;23.380;2023-03-26T02:45:49;0.90;;;0.50;;
3967;SDS011;9221;42.646;23.380;2023-03-26T02:48:14;1.17;;;0.60;;
3967;SDS011;9221;42.646;23.380;2023-03-26T02:50:40;2.20;;;0.93;;
3967;SDS011;9221;42.646;23.380;2023-03-26T02:53:06;0.80;;;0.50;;
3967;SDS011;9221;42.646;23.380;2023-03-26T02:55:32;0.67;;;0.60;;
3967;SDS011;9221;42.646;23.380;2023-03-26T02:57:57;1.53;;;0.70;;
3967;SDS011;9221;42.646;23.380;2023-03-26T03:00:23;1.63;;;0.90;;
3967;SDS011;9221;42.646;23.380;2023-03-26T03:02:50;3.00;;;1.03;;
3967;SDS011;9221;42.646;23.380;2023-03-26T03:05:17;1.80;;;0.60;;
3967;SDS011;9221;42.646;23.380;2023-03-26T03:07:43;1.37;;;0.80;;
3967;SDS011;9221;42.646;23.380;2023-03-26T03:10:12;1.03;;;0.70;;
3967;SDS011;9221;42.646;23.380;2023-03-26T03:12:41;2.73;;;0.87;;
3967;SDS011;9221;42.646;23.380;2023-03-26T03:15:07;0.90;;;0.60;;
3967;SDS011;9221;42.646;23.380;2023-03-26T03:17:33;1.53;;;0.80;;
3967;SDS011;9221;42.646;23.380;2023-03-26T03:19:58;0.80;;;0.67;;
3967;SDS011;9221;42.646;23.380;2023-03-26T03:22:24;0.63;;;0.57;;
3967;SDS011;9221;42.646;23.380;2023-03-26T03:24:49;1.40;;;0.70;;
3967;SDS011;9221;42.646;23.380;2023-03-26T03:27:21;3.20;;;1.00;;
3967;SDS011;9221;42.646;23.380;2023-03-26T03:29:50;2.00;;;1.03;;
3967;SDS011;9221;42.646;23.380;2023-03-26T03:32:17;1.20;;;1.00;;
3967;SDS011;9221;42.646;23.380;2023-03-26T03:34:43;1.07;;;0.87;;
3967;SDS011;9221;42.646;23.380;2023-03-26T03:37:08;2.00;;;1.50;;
3967;SDS011;9221;42.646;23.380;2023-03-26T03:39:34;1.57;;;0.90;;
3967;SDS011;9221;42.646;23.380;2023-03-26T03:41:59;1.93;;;1.10;;
3967;SDS011;9221;42.646;23.380;2023-03-26T03:44:25;1.77;;;1.20;;
3967;SDS011;9221;42.646;23.380;2023-03-26T03:46:51;2.83;;;1.47;;
3967;SDS011;9221;42.646;23.380;2023-03-26T03:49:19;3.43;;;1.57;;
3967;SDS011;9221;42.646;23.380;2023-03-26T03:51:45;2.50;;;1.23;;
3967;SDS011;9221;42.646;23.380;2023-03-26T03:54:10;5.50;;;1.60;;
3967;SDS011;9221;42.646;23.380;2023-03-26T03:56:36;1.97;;;1.10;;
3967;SDS011;9221;42.646;23.380;2023-03-26T03:59:03;3.57;;;1.50;;
3967;SDS011;9221;42.646;23.380;2023-03-26T04:01:28;3.17;;;1.30;;
3967;SDS011;9221;42.646;23.380;2023-03-26T04:03:55;4.70;;;1.60;;
3967;SDS011;9221;42.646;23.380;2023-03-26T04:06:20;3.60;;;1.80;;
3967;SDS011;9221;42.646;23.380;2023-03-26T04:08:49;2.10;;;1.10;;
3967;SDS011;9221;42.646;23.380;2023-03-26T04:11:15;2.70;;;1.40;;
3967;SDS011;9221;42.646;23.380;2023-03-26T04:13:40;5.13;;;1.90;;
3967;SDS011;9221;42.646;23.380;2023-03-26T04:16:06;2.00;;;1.00;;
3967;SDS011;9221;42.646;23.380;2023-03-26T04:18:31;2.43;;;1.53;;
3967;SDS011;9221;42.646;23.380;2023-03-26T04:20:57;2.40;;;1.23;;
3967;SDS011;9221;42.646;23.380;2023-03-26T04:23:26;4.57;;;1.80;;
3967;SDS011;9221;42.646;23.380;2023-03-26T04:25:53;3.00;;;1.50;;
3967;SDS011;9221;42.646;23.380;2023-03-26T04:28:27;2.33;;;1.40;;
3967;SDS011;9221;42.646;23.380;2023-03-26T04:30:54;3.20;;;1.93;;
3967;SDS011;9221;42.646;23.380;2023-03-26T04:33:24;3.63;;;1.80;;
3967;SDS011;9221;42.646;23.380;2023-03-26T04:35:52;3.27;;;1.90;;
3967;SDS011;9221;42.646;23.380;2023-03-26T04:38:18;3.50;;;1.80;;
3967;SDS011;9221;42.646;23.380;2023-03-26T04:40:44;3.80;;;1.70;;
3967;SDS011;9221;42.646;23.380;2023-03-26T04:43:13;3.03;;;1.90;;
3967;SDS011;9221;42.646;23.380;2023-03-26T04:45:42;5.03;;;1.93;;
3967;SDS011;9221;42.646;23.380;2023-03-26T04:48:07;4.47;;;2.07;;
3967;SDS011;9221;42.646;23.380;2023-03-26T04:50:38;8.10;;;1.63;;
3967;SDS011;9221;42.646;23.380;2023-03-26T04:53:05;3.27;;;2.00;;
3967;SDS011;9221;42.646;23.380;2023-03-26T04:55:37;3.20;;;1.87;;
3967;SDS011;9221;42.646;23.380;2023-03-26T04:58:19;4.47;;;1.60;;
3967;SDS011;9221;42.646;23.380;2023-03-26T05:00:45;4.20;;;2.40;;
3967;SDS011;9221;42.646;23.380;2023-03-26T05:03:11;4.43;;;1.80;;
3967;SDS011;9221;42.646;23.380;2023-03-26T05:05:37;3.57;;;2.00;;
3967;SDS011;9221;42.646;23.380;2023-03-26T05:08:04;3.30;;;1.70;;
3967;SDS011;9221;42.646;23.380;2023-03-26T05:10:29;2.67;;;1.80;;
3967;SDS011;9221;42.646;23.380;2023-03-26T05:12:55;3.27;;;2.10;;
3967;SDS011;9221;42.646;23.380;2023-03-26T05:15:20;4.47;;;2.50;;
3967;SDS011;9221;42.646;23.380;2023-03-26T05:17:46;4.53;;;2.13;;
3967;SDS011;9221;42.646;23.380;2023-03-26T05:20:22;7.30;;;2.77;;
3967;SDS011;9221;42.646;23.380;2023-03-26T05:22:50;6.27;;;2.90;;
3967;SDS011;9221;42.646;23.380;2023-03-26T05:25:16;5.73;;;2.60;;
3967;SDS011;9221;42.646;23.380;2023-03-26T05:27:42;4.57;;;2.70;;
3967;SDS011;9221;42.646;23.380;2023-03-26T05:30:08;4.50;;;2.20;;
3967;SDS011;9221;42.646;23.380;2023-03-26T05:32:37;6.97;;;2.53;;
3967;SDS011;9221;42.646;23.380;2023-03-26T05:35:02;5.93;;;3.03;;
3967;SDS011;9221;42.646;23.380;2023-03-26T05:37:28;5.90;;;2.83;;
3967;SDS011;9221;42.646;23.380;2023-03-26T05:39:55;9.93;;;3.30;;
3967;SDS011;9221;42.646;23.380;2023-03-26T05:42:21;8.00;;;3.23;;
3967;SDS011;9221;42.646;23.380;2023-03-26T05:44:47;7.50;;;3.83;;
3967;SDS011;9221;42.646;23.380;2023-03-26T05:47:12;6.60;;;3.23;;
3967;SDS011;9221;42.646;23.380;2023-03-26T05:49:38;6.93;;;3.40;;
3967;SDS011;9221;42.646;23.380;2023-03-26T05:52:03;6.43;;;3.33;;
3967;SDS011;9221;42.646;23.380;2023-03-26T05:54:29;6.57;;;3.33;;
3967;SDS011;9221;42.646;23.380;2023-03-26T05:56:55;5.00;;;3.10;;
3967;SDS011;9221;42.646;23.380;2023-03-26T05:59:21;9.47;;;4.37;;
3967;SDS011;9221;42.646;23.380;2023-03-26T06:01:47;8.07;;;3.57;;
3967;SDS011;9221;42.646;23.380;2023-03-26T06:04:13;10.93;;;4.30;;
3967;SDS011;9221;42.646;23.380;2023-03-26T06:06:39;7.80;;;3.67;;
3967;SDS011;9221;42.646;23.380;2023-03-26T06:09:05;10.33;;;3.53;;
3967;SDS011;9221;42.646;23.380;2023-03-26T06:11:31;6.57;;;3.50;;
3967;SDS011;9221;42.646;23.380;2023-03-26T06:13:57;7.03;;;3.53;;
3967;SDS011;9221;42.646;23.380;2023-03-26T06:16:23;6.23;;;3.30;;
3967;SDS011;9221;42.646;23.380;2023-03-26T06:18:48;6.10;;;3.30;;
3967;SDS011;9221;42.646;23.380;2023-03-26T06:21:16;4.97;;;3.07;;
3967;SDS011;9221;42.646;23.380;2023-03-26T06:23:41;6.77;;;3.23;;
3967;SDS011;9221;42.646;23.380;2023-03-26T06:26:07;6.90;;;3.73;;
3967;SDS011;9221;42.646;23.380;2023-03-26T06:28:32;5.93;;;3.17;;
3967;SDS011;9221;42.646;23.380;2023-03-26T06:30:59;6.53;;;3.67;;
3967;SDS011;9221;42.646;23.380;2023-03-26T06:33:25;5.83;;;3.30;;
3967;SDS011;9221;42.646;23.380;2023-03-26T06:35:51;7.03;;;3.40;;
3967;SDS011;9221;42.646;23.380;2023-03-26T06:38:16;8.00;;;3.57;;
3967;SDS011;9221;42.646;23.380;2023-03-26T06:40:41;8.37;;;3.80;;
3967;SDS011;9221;42.646;23.380;2023-03-26T06:43:07;5.67;;;3.50;;
3967;SDS011;9221;42.646;23.380;2023-03-26T06:45:32;5.70;;;3.53;;
3967;SDS011;9221;42.646;23.380;2023-03-26T06:47:58;7.27;;;3.50;;
3967;SDS011;9221;42.646;23.380;2023-03-26T06:50:24;11.30;;;3.70;;
3967;SDS011;9221;42.646;23.380;2023-03-26T06:52:52;11.50;;;4.40;;
3967;SDS011;9221;42.646;23.380;2023-03-26T06:55:21;7.20;;;4.10;;
3967;SDS011;9221;42.646;23.380;2023-03-26T06:57:47;11.23;;;3.80;;
3967;SDS011;9221;42.646;23.380;2023-03-26T07:00:14;7.67;;;4.10;;
3967;SDS011;9221;42.646;23.380;2023-03-26T07:02:40;8.40;;;3.83;;
3967;SDS011;9221;42.646;23.380;2023-03-26T07:05:05;8.77;;;4.60;;
3967;SDS011;9221;42.646;23.380;2023-03-26T07:07:31;7.50;;;3.90;;
3967;SDS011;9221;42.646;23.380;2023-03-26T07:09:56;7.00;;;4.13;;
3967;SDS011;9221;42.646;23.380;2023-03-26T07:12:21;7.47;;;3.67;;
3967;SDS011;9221;42.646;23.380;2023-03-26T07:14:47;9.63;;;4.20;;
3967;SDS011;9221;42.646;23.380;2023-03-26T07:17:12;10.83;;;5.00;;
3967;SDS011;9221;42.646;23.380;2023-03-26T07:19:38;14.63;;;4.30;;
3967;SDS011;9221;42.646;23.380;2023-03-26T07:22:03;6.70;;;4.00;;
3967;SDS011;9221;42.646;23.380;2023-03-26T07:24:29;7.87;;;3.73;;
3967;SDS011;9221;42.646;23.380;2023-03-26T07:45:38;4.87;;;3.00;;
3967;SDS011;9221;42.646;23.380;2023-03-26T07:48:14;9.23;;;3.80;;
3967;SDS011;9221;42.646;23.380;2023-03-26T07:50:57;6.90;;;3.63;;
3967;SDS011;9221;42.646;23.380;2023-03-26T07:53:24;5.83;;;3.30;;
3967;SDS011;9221;42.646;23.380;2023-03-26T07:55:56;6.57;;;3.20;;
3967;SDS011;9221;42.646;23.380;2023-03-26T08:12:47;6.00;;;2.63;;
3967;SDS011;9221;42.646;23.380;2023-03-26T08:15:44;6.63;;;3.93;;
3967;SDS011;9221;42.646;23.380;2023-03-26T08:21:18;4.00;;;2.67;;
3967;SDS011;9221;42.646;23.380;2023-03-26T08:24:02;4.87;;;2.47;;
3967;SDS011;9221;42.646;23.380;2023-03-26T08:29:09;5.07;;;2.77;;
3967;SDS011;9221;42.646;23.380;2023-03-26T08:31:48;4.67;;;2.77;;
3967;SDS011;9221;42.646;23.380;2023-03-26T08:34:14;3.43;;;2.20;;
3967;SDS011;9221;42.646;23.380;2023-03-26T08:36:40;4.17;;;2.43;;
3967;SDS011;9221;42.646;23.380;2023-03-26T08:39:06;3.90;;;2.40;;
3967;SDS011;9221;42.646;23.380;2023-03-26T08:52:58;3.03;;;1.57;;
3967;SDS011;9221;42.646;23.380;2023-03-26T08:55:48;9.63;;;2.87;;
3967;SDS011;9221;42.646;23.380;2023-03-26T09:01:24;4.53;;;2.10;;
3967;SDS011;9221;42.646;23.380;2023-03-26T09:39:34;1.63;;;1.03;;
3967;SDS011;9221;42.646;23.380;2023-03-26T09:44:46;4.73;;;0.97;;
3967;SDS011;9221;42.646;23.380;2023-03-26T09:52:50;2.60;;;0.90;;
3967;SDS011;9221;42.646;23.380;2023-03-26T10:01:13;2.43;;;1.13;;
3967;SDS011;9221;42.646;23.380;2023-03-26T10:06:26;4.20;;;1.13;;
3967;SDS011;9221;42.646;23.380;2023-03-26T10:09:17;1.50;;;0.80;;
3967;SDS011;9221;42.646;23.380;2023-03-26T10:29:02;2.80;;;1.40;;
3967;SDS011;9221;42.646;23.380;2023-03-26T10:31:38;6.13;;;1.57;;
3967;SDS011;9221;42.646;23.380;2023-03-26T10:36:50;1.10;;;0.83;;
3967;SDS011;9221;42.646;23.380;2023-03-26T10:49:49;5.50;;;0.60;;
3967;SDS011;9221;42.646;23.380;2023-03-26T10:55:39;2.70;;;0.70;;
3967;SDS011;9221;42.646;23.380;2023-03-26T11:03:46;0.90;;;0.60;;
3967;SDS011;9221;42.646;23.380;2023-03-26T11:09:13;0.73;;;0.60;;
3967;SDS011;9221;42.646;23.380;2023-03-26T11:11:52;3.60;;;1.00;;
3967;SDS011;9221;42.646;23.380;2023-03-26T11:14:33;3.10;;;0.90;;
3967;SDS011;9221;42.646;23.380;2023-03-26T11:20:19;3.80;;;0.67;;
3967;SDS011;9221;42.646;23.380;2023-03-26T11:22:55;0.50;;;0.40;;
3967;SDS011;9221;42.646;23.380;2023-03-26T11:33:59;1.80;;;0.40;;
3967;SDS011;9221;42.646;23.380;2023-03-26T11:36:30;1.60;;;0.60;;
3967;SDS011;9221;42.646;23.380;2023-03-26T11:39:02;1.00;;;0.40;;
3967;SDS011;9221;42.646;23.380;2023-03-26T11:41:33;1.00;;;0.60;;
3967;SDS011;9221;42.646;23.380;2023-03-26T11:44:07;1.27;;;0.40;;
3967;SDS011;9221;42.646;23.380;2023-03-26T11:46:43;0.80;;;0.50;;
3967;SDS011;9221;42.646;23.380;2023-03-26T11:49:11;0.90;;;0.50;;
3967;SDS011;9221;42.646;23.380;2023-03-26T11:51:40;1.47;;;0.47;;
3967;SDS011;9221;42.646;23.380;2023-03-26T11:54:10;2.37;;;0.50;;
3967;SDS011;9221;42.646;23.380;2023-03-26T11:59:51;1.70;;;0.40;;
3967;SDS011;9221;42.646;23.380;2023-03-26T12:02:28;0.80;;;0.60;;
3967;SDS011;9221;42.646;23.380;2023-03-26T12:07:53;2.00;;;0.60;;
3967;SDS011;9221;42.646;23.380;2023-03-26T12:10:36;1.17;;;0.43;;
3967;SDS011;9221;42.646;23.380;2023-03-26T12:15:47;0.90;;;0.53;;
3967;SDS011;9221;42.646;23.380;2023-03-26T12:18:19;2.20;;;0.57;;
3967;SDS011;9221;42.646;23.380;2023-03-26T12:21:00;1.60;;;0.77;;
3967;SDS011;9221;42.646;23.380;2023-03-26T12:23:39;4.10;;;0.50;;
3967;SDS011;9221;42.646;23.380;2023-03-26T12:29:12;0.73;;;0.40;;
3967;SDS011;9221;42.646;23.380;2023-03-26T12:31:57;0.80;;;0.50;;
3967;SDS011;9221;42.646;23.380;2023-03-26T12:34:28;1.17;;;0.40;;
3967;SDS011;9221;42.646;23.380;2023-03-26T12:36:59;0.90;;;0.50;;
3967;SDS011;9221;42.646;23.380;2023-03-26T12:41:55;2.97;;;0.50;;
3967;SDS011;9221;42.646;23.380;2023-03-26T12:44:29;0.77;;;0.50;;
3967;SDS011;9221;42.646;23.380;2023-03-26T12:49:45;2.60;;;0.43;;
3967;SDS011;9221;42.646;23.380;2023-03-26T12:55:06;0.53;;;0.40;;
3967;SDS011;9221;42.646;23.380;2023-03-26T12:58:09;0.80;;;0.43;;
3967;SDS011;9221;42.646;23.380;2023-03-26T13:01:07;0.50;;;0.30;;
3967;SDS011;9221;42.646;23.380;2023-03-26T13:06:27;0.67;;;0.43;;
3967;SDS011;9221;42.646;23.380;2023-03-26T13:11:59;1.07;;;0.60;;
3967;SDS011;9221;42.646;23.380;2023-03-26T13:40:09;0.40;;;0.30;;
3967;SDS011;9221;42.646;23.380;2023-03-26T13:43:25;0.67;;;0.30;;
3967;SDS011;9221;42.646;23.380;2023-03-26T13:46:09;0.67;;;0.40;;
3967;SDS011;9221;42.646;23.380;2023-03-26T13:48:49;1.67;;;0.40;;
3967;SDS011;9221;42.646;23.380;2023-03-26T14:00:22;1.47;;;0.30;;
3967;SDS011;9221;42.646;23.380;2023-03-26T14:02:45;1.00;;;0.40;;
3967;SDS011;9221;42.646;23.380;2023-03-26T14:05:43;0.50;;;0.50;;
3967;SDS011;9221;42.646;23.380;2023-03-26T14:08:20;0.60;;;0.40;;
3967;SDS011;9221;42.646;23.380;2023-03-26T14:10:51;0.70;;;0.50;;
3967;SDS011;9221;42.646;23.380;2023-03-26T14:16:20;0.90;;;0.30;;
3967;SDS011;9221;42.646;23.380;2023-03-26T14:19:21;0.50;;;0.40;;
3967;SDS011;9221;42.646;23.380;2023-03-26T14:40:42;0.93;;;0.30;;
3967;SDS011;9221;42.646;23.380;2023-03-26T14:46:29;1.80;;;0.53;;
3967;SDS011;9221;42.646;23.380;2023-03-26T14:52:18;4.33;;;0.70;;
3967;SDS011;9221;42.646;23.380;2023-03-26T14:54:44;5.77;;;0.93;;
3967;SDS011;9221;42.646;23.380;2023-03-26T15:08:13;1.23;;;0.40;;
3967;SDS011;9221;42.646;23.380;2023-03-26T16:06:59;1.37;;;0.60;;
3967;SDS011;9221;42.646;23.380;2023-03-26T16:12:36;1.60;;;0.90;;
3967;SDS011;9221;42.646;23.380;2023-03-26T16:15:13;1.60;;;0.53;;
3967;SDS011;9221;42.646;23.380;2023-03-26T16:28:30;0.80;;;0.60;;
3967;SDS011;9221;42.646;23.380;2023-03-26T16:31:19;1.13;;;0.50;;
3967;SDS011;9221;42.646;23.380;2023-03-26T16:33:56;7.00;;;1.33;;
3967;SDS011;9221;42.646;23.380;2023-03-26T16:36:43;2.47;;;0.77;;
3967;SDS011;9221;42.646;23.380;2023-03-26T16:39:11;1.47;;;0.60;;
3967;SDS011;9221;42.646;23.380;2023-03-26T16:47:44;2.50;;;0.63;;
3967;SDS011;9221;42.646;23.380;2023-03-26T16:52:42;3.30;;;1.20;;
3967;SDS011;9221;42.646;23.380;2023-03-26T16:58:07;3.03;;;0.97;;
3967;SDS011;9221;42.646;23.380;2023-03-26T17:03:40;2.00;;;1.03;;
3967;SDS011;9221;42.646;23.380;2023-03-26T17:12:14;2.10;;;1.20;;
3967;SDS011;9221;42.646;23.380;2023-03-26T17:18:00;5.63;;;2.03;;
3967;SDS011;9221;42.646;23.380;2023-03-26T17:20:43;3.63;;;1.67;;
3967;SDS011;9221;42.646;23.380;2023-03-26T17:28:49;4.53;;;1.90;;
3967;SDS011;9221;42.646;23.380;2023-03-26T17:31:19;3.37;;;1.20;;
3967;SDS011;9221;42.646;23.380;2023-03-26T17:33:51;3.33;;;1.00;;
3967;SDS011;9221;42.646;23.380;2023-03-26T17:36:35;2.60;;;1.30;;
3967;SDS011;9221;42.646;23.380;2023-03-26T17:39:21;3.80;;;1.30;;
3967;SDS011;9221;42.646;23.380;2023-03-26T17:44:51;13.33;;;2.00;;
3967;SDS011;9221;42.646;23.380;2023-03-26T17:50:05;8.53;;;2.40;;
3967;SDS011;9221;42.646;23.380;2023-03-26T17:52:48;10.23;;;2.97;;
3967;SDS011;9221;42.646;23.380;2023-03-26T17:55:17;3.53;;;1.50;;
3967;SDS011;9221;42.646;23.380;2023-03-26T17:57:49;7.17;;;2.00;;
3967;SDS011;9221;42.646;23.380;2023-03-26T18:00:21;2.53;;;1.40;;
3967;SDS011;9221;42.646;23.380;2023-03-26T18:02:51;3.10;;;1.20;;
3967;SDS011;9221;42.646;23.380;2023-03-26T18:05:21;2.53;;;1.50;;
3967;SDS011;9221;42.646;23.380;2023-03-26T18:16:32;6.33;;;2.67;;
3967;SDS011;9221;42.646;23.380;2023-03-26T18:19:04;6.07;;;2.10;;
3967;SDS011;9221;42.646;23.380;2023-03-26T18:21:43;4.33;;;1.57;;
3967;SDS011;9221;42.646;23.380;2023-03-26T18:24:14;4.47;;;1.97;;
3967;SDS011;9221;42.646;23.380;2023-03-26T18:27:00;11.23;;;2.00;;
3967;SDS011;9221;42.646;23.380;2023-03-26T18:29:31;5.83;;;2.57;;
3967;SDS011;9221;42.646;23.380;2023-03-26T18:34:35;5.27;;;1.93;;
3967;SDS011;9221;42.646;23.380;2023-03-26T18:39:32;5.00;;;2.10;;
3967;SDS011;9221;42.646;23.380;2023-03-26T18:41:58;8.10;;;2.17;;
3967;SDS011;9221;42.646;23.380;2023-03-26T18:44:24;5.90;;;1.80;;
3967;SDS011;9221;42.646;23.380;2023-03-26T18:46:53;6.00;;;2.00;;
3967;SDS011;9221;42.646;23.380;2023-03-26T18:49:19;3.60;;;1.60;;
3967;SDS011;9221;42.646;23.380;2023-03-26T18:51:46;3.63;;;1.63;;
3967;SDS011;9221;42.646;23.380;2023-03-26T18:54:14;4.63;;;1.83;;
3967;SDS011;9221;42.646;23.380;2023-03-26T18:56:42;5.70;;;1.67;;
3967;SDS011;9221;42.646;23.380;2023-03-26T18:59:30;5.87;;;2.10;;
3967;SDS011;9221;42.646;23.380;2023-03-26T19:01:59;4.40;;;1.50;;
3967;SDS011;9221;42.646;23.380;2023-03-26T19:04:29;2.53;;;1.40;;
3967;SDS011;9221;42.646;23.380;2023-03-26T19:06:57;3.40;;;1.60;;
3967;SDS011;9221;42.646;23.380;2023-03-26T19:09:24;4.10;;;1.33;;
3967;SDS011;9221;42.646;23.380;2023-03-26T19:12:33;7.13;;;1.93;;
3967;SDS011;9221;42.646;23.380;2023-03-26T19:14:50;3.80;;;1.80;;
3967;SDS011;9221;42.646;23.380;2023-03-26T19:17:18;4.40;;;1.50;;
3967;SDS011;9221;42.646;23.380;2023-03-26T19:19:44;5.37;;;2.10;;
3967;SDS011;9221;42.646;23.380;2023-03-26T19:22:10;4.33;;;1.93;;
3967;SDS011;9221;42.646;23.380;2023-03-26T19:24:35;4.47;;;1.63;;
3967;SDS011;9221;42.646;23.380;2023-03-26T19:27:01;4.63;;;1.57;;
3967;SDS011;9221;42.646;23.380;2023-03-26T19:29:28;4.70;;;1.70;;
3967;SDS011;9221;42.646;23.380;2023-03-26T19:32:01;3.70;;;1.67;;
3967;SDS011;9221;42.646;23.380;2023-03-26T19:34:39;3.97;;;2.10;;
3967;SDS011;9221;42.646;23.380;2023-03-26T19:37:24;2.23;;;1.20;;
3967;SDS011;9221;42.646;23.380;2023-03-26T19:39:58;3.97;;;1.33;;
3967;SDS011;9221;42.646;23.380;2023-03-26T19:42:27;3.57;;;1.37;;
3967;SDS011;9221;42.646;23.380;2023-03-26T19:44:57;9.13;;;1.60;;
3967;SDS011;9221;42.646;23.380;2023-03-26T19:47:30;4.73;;;1.50;;
3967;SDS011;9221;42.646;23.380;2023-03-26T19:55:55;6.33;;;1.50;;
3967;SDS011;9221;42.646;23.380;2023-03-26T19:58:24;2.40;;;0.70;;
3967;SDS011;9221;42.646;23.380;2023-03-26T20:00:50;2.80;;;1.10;;
3967;SDS011;9221;42.646;23.380;2023-03-26T20:03:16;5.33;;;1.37;;
3967;SDS011;9221;42.646;23.380;2023-03-26T20:05:48;3.33;;;1.27;;
3967;SDS011;9221;42.646;23.380;2023-03-26T20:08:14;1.63;;;0.80;;
3967;SDS011;9221;42.646;23.380;2023-03-26T20:10:40;4.53;;;1.90;;
3967;SDS011;9221;42.646;23.380;2023-03-26T20:13:14;2.63;;;1.10;;
3967;SDS011;9221;42.646;23.380;2023-03-26T20:15:41;2.50;;;1.07;;
3967;SDS011;9221;42.646;23.380;2023-03-26T20:18:11;2.63;;;0.90;;
3967;SDS011;9221;42.646;23.380;2023-03-26T20:20:37;2.90;;;1.00;;
3967;SDS011;9221;42.646;23.380;2023-03-26T20:23:12;2.20;;;0.90;;
3967;SDS011;9221;42.646;23.380;2023-03-26T20:25:43;2.20;;;0.80;;
3967;SDS011;9221;42.646;23.380;2023-03-26T20:28:14;1.10;;;0.80;;
3967;SDS011;9221;42.646;23.380;2023-03-26T20:30:40;3.70;;;0.83;;
3967;SDS011;9221;42.646;23.380;2023-03-26T20:33:08;2.43;;;1.13;;
3967;SDS011;9221;42.646;23.380;2023-03-26T20:35:40;4.97;;;0.90;;
3967;SDS011;9221;42.646;23.380;2023-03-26T20:38:06;0.90;;;0.73;;
3967;SDS011;9221;42.646;23.380;2023-03-26T20:40:33;2.27;;;1.00;;
3967;SDS011;9221;42.646;23.380;2023-03-26T20:42:59;1.63;;;1.00;;
3967;SDS011;9221;42.646;23.380;2023-03-26T20:45:25;2.77;;;0.80;;
3967;SDS011;9221;42.646;23.380;2023-03-26T20:47:50;1.30;;;1.00;;
3967;SDS011;9221;42.646;23.380;2023-03-26T20:50:18;2.00;;;0.70;;
3967;SDS011;9221;42.646;23.380;2023-03-26T20:52:49;0.70;;;0.60;;
3967;SDS011;9221;42.646;23.380;2023-03-26T20:55:15;0.70;;;0.47;;
3967;SDS011;9221;42.646;23.380;2023-03-26T20:57:45;1.73;;;0.93;;
3967;SDS011;9221;42.646;23.380;2023-03-26T21:00:11;1.10;;;0.70;;
3967;SDS011;9221;42.646;23.380;2023-03-26T21:02:42;1.40;;;0.53;;
3967;SDS011;9221;42.646;23.380;2023-03-26T21:05:09;1.80;;;0.90;;
3967;SDS011;9221;42.646;23.380;2023-03-26T21:07:41;0.83;;;0.57;;
3967;SDS011;9221;42.646;23.380;2023-03-26T21:10:10;1.37;;;0.73;;
3967;SDS011;9221;42.646;23.380;2023-03-26T21:12:45;0.90;;;0.53;;
3967;SDS011;9221;42.646;23.380;2023-03-26T21:15:12;3.37;;;0.63;;
3967;SDS011;9221;42.646;23.380;2023-03-26T21:17:37;1.17;;;0.73;;
3967;SDS011;9221;42.646;23.380;2023-03-26T21:20:03;1.90;;;0.93;;
3967;SDS011;9221;42.646;23.380;2023-03-26T21:22:56;2.40;;;1.17;;
3967;SDS011;9221;42.646;23.380;2023-03-26T21:31:12;4.63;;;1.13;;
3967;SDS011;9221;42.646;23.380;2023-03-26T21:33:42;5.67;;;1.70;;
3967;SDS011;9221;42.646;23.380;2023-03-26T21:36:08;2.67;;;0.90;;
3967;SDS011;9221;42.646;23.380;2023-03-26T21:38:35;3.87;;;1.40;;
3967;SDS011;9221;42.646;23.380;2023-03-26T21:41:02;6.53;;;2.13;;
3967;SDS011;9221;42.646;23.380;2023-03-26T21:43:27;4.23;;;1.57;;
3967;SDS011;9221;42.646;23.380;2023-03-26T21:45:53;6.77;;;1.40;;
3967;SDS011;9221;42.646;23.380;2023-03-26T21:48:19;4.10;;;1.90;;
3967;SDS011;9221;42.646;23.380;2023-03-26T21:50:45;7.53;;;1.60;;
3967;SDS011;9221;42.646;23.380;2023-03-26T21:53:12;6.83;;;1.93;;
3967;SDS011;9221;42.646;23.380;2023-03-26T21:55:47;2.30;;;1.23;;
3967;SDS011;9221;42.646;23.380;2023-03-26T22:03:36;5.00;;;1.93;;
3967;SDS011;9221;42.646;23.380;2023-03-26T22:06:12;4.70;;;2.00;;
3967;SDS011;9221;42.646;23.380;2023-03-26T22:08:41;7.70;;;1.97;;
3967;SDS011;9221;42.646;23.380;2023-03-26T22:11:08;6.97;;;2.50;;